Chamberlain Brothers Ranch, WY

06:44 PM MST die 17o January, anno 2017 (GMT -0700)
North Laramie Foothills | | Change Station

Elev 5272 ft 42.72 °N, 105.49 °W | Updated 15 seconds ago

Partialiter Nubila
Partialiter Nubila
38.1 °F
Feels Like 38 °F
N
3.0
Ventus Variabilis Ventus from Magis Auster quam Zephyrus
Gusts 4.0 mph

Hodie
High -- | Low -- °F
--% Chance of Precip.
Yesterday
High -- | Low -- °F
Precip. -- in
Pressio 30.13 in
Visibilitas 10.0 milia passuum
Clouds Serena
Frigus Venti 38 °F
Frigus in quo Ros apparet 15 °F
Umor 38%
Rainfall 0.00 in
Snow Depth Not available.
7:29 AM 4:56 PM
Waning Gibbous, 68% visible
METAR KDGW 180053Z AUTO 32010KT 10SM CLR 02/M10 A2998 RMK AO2 SLP201 T00221100
Pressio 30.13 in
Visibilitas 10.0 milia passuum
Clouds Serena
Frigus Venti 38 °F
Frigus in quo Ros apparet 15 °F
Umor 38%
Rainfall 0.00 in
Snow Depth Not available.
7:29 AM 4:56 PM
Waning Gibbous, 68% visible
METAR KDGW 180053Z AUTO 32010KT 10SM CLR 02/M10 A2998 RMK AO2 SLP201 T00221100

Get Your Daily Forecast Email!

Thanks for signing up!

Be on the lookout for a verification email in your inbox.

You'll start receiving the daily forecast at 8 AM.

×

10-Day Weather Forecast

Almanac

Astronomy

Jan. 17, 2017 Rise Set
Actual Time
Civil Twilight
Nautical Twilight
Astronomical Twilight
Moon
Length Of Visible Light
Length of Day
Tomorrow will be .
, % of the Moon is Illuminated

Today's Extremes

State Highs State Lows

Community

WunderPhotos

Upload Photos

1,962,540 photos uploaded!

WunderBlog® & News

Nearby

Air Quality

  Air Quality AQ Index Pollutant
Not available.

Snow Depth

Station Depth Elevation

Earthquake Activity

City Distance Mag. Time & Date
Minimum magnitude displayed is 2.5.

Coastal Water Temperatures

Locus Calor

Stations

Nearby Weather Stations

Station Location Temp Frigus Venti Frigus in quo Ros apparet Umor Ventus Precip. Elev Renovata Type
                   

Watches & Warnings

There are currently no watches in effect.